Time;durP1;ratioP1;P1;durP2;ratioP2;P2;SDS_P1;SDS_P2;PMS_P1;PMS_P2;Temp;Humidity;BMP_temperature;BMP_pressure;BME280_temperature;BME280_humidity;BME280_pressure;Samples;Min_cycle;Max_cycle;Signal;HPM_P1;HPM_P2
2022/04/13 00:00:39;;;;;;;57.62;49.20;;;27.70;91.80;;;;;;1832800;78;21249;-84
2022/04/13 00:03:10;;;;;;;57.60;50.25;;;27.70;91.90;;;;;;1825979;78;21159;-84
2022/04/13 00:05:44;;;;;;;57.05;47.50;;;27.70;91.40;;;;;;1810083;79;21120;-82
2022/04/13 00:08:15;;;;;;;56.35;48.10;;;27.70;91.70;;;;;;1833309;78;21219;-85
2022/04/13 00:10:47;;;;;;;56.95;47.62;;;27.80;91.70;;;;;;1821463;78;21175;-83
2022/04/13 00:13:18;;;;;;;53.58;46.73;;;27.80;91.70;;;;;;1837189;78;21104;-84
2022/04/13 00:15:53;;;;;;;52.05;44.85;;;27.80;91.40;;;;;;1832480;78;21073;-83
2022/04/13 00:18:24;;;;;;;54.23;45.52;;;27.90;91.00;;;;;;1834809;77;21081;-83
2022/04/13 00:20:55;;;;;;;50.12;44.70;;;27.80;90.90;;;;;;1830930;78;21104;-85
2022/04/13 00:23:26;;;;;;;52.00;45.23;;;27.90;90.70;;;;;;1814959;78;21046;-84
2022/04/13 00:25:59;;;;;;;48.90;43.68;;;27.90;90.50;;;;;;1816442;78;21202;-82
2022/04/13 00:28:29;;;;;;;49.08;43.98;;;27.90;90.30;;;;;;1807854;78;21160;-83
2022/04/13 00:31:00;;;;;;;48.87;43.58;;;28.00;90.30;;;;;;1821767;78;21073;-84
2022/04/13 00:33:33;;;;;;;48.23;42.30;;;28.00;90.20;;;;;;1814475;78;21153;-85
2022/04/13 00:36:04;;;;;;;49.03;43.98;;;28.00;90.20;;;;;;1820439;78;21507;-84
2022/04/13 00:38:35;;;;;;;47.88;42.88;;;28.00;90.20;;;;;;1810133;78;21097;-84
2022/04/13 00:41:06;;;;;;;47.23;42.17;;;28.10;90.00;;;;;;1818837;78;21180;-83
2022/04/13 00:43:37;;;;;;;48.33;42.60;;;28.10;90.00;;;;;;1824363;77;21139;-83
2022/04/13 00:46:13;;;;;;;46.75;41.80;;;28.10;89.50;;;;;;1825850;77;21209;-84
2022/04/13 00:48:53;;;;;;;45.58;40.83;;;28.20;89.40;;;;;;1820760;77;21082;-85
2022/04/13 00:51:49;;;;;;;46.55;41.55;;;28.20;89.10;;;;;;1823253;78;21100;-83
2022/04/13 00:54:24;;;;;;;45.00;40.20;;;28.20;89.00;;;;;;1819330;78;21169;-83
2022/04/13 00:56:56;;;;;;;43.55;38.73;;;28.30;90.00;;;;;;1826462;78;21195;-83
2022/04/13 00:59:35;;;;;;;46.08;41.15;;;28.30;88.80;;;;;;1814201;78;21144;-84
2022/04/13 01:02:12;;;;;;;46.77;40.83;;;28.30;88.50;;;;;;1811755;78;21579;-84
2022/04/13 01:04:51;;;;;;;44.42;39.55;;;28.40;88.60;;;;;;1810239;78;21203;-84
2022/04/13 01:07:25;;;;;;;46.70;41.40;;;28.40;88.40;;;;;;1828023;78;21073;-83
2022/04/13 01:10:05;;;;;;;44.85;40.00;;;28.40;88.30;;;;;;1826126;78;21528;-83
2022/04/13 01:13:05;;;;;;;46.13;41.40;;;28.50;88.20;;;;;;1782289;77;21156;-83
2022/04/13 01:15:27;;;;;;;;;;;;;;;;;;;;;
2022/04/13 01:17:53;;;;;;;;;;;28.60;88.10;;;;;;1789162;77;21174;-85
2022/04/13 01:20:46;;;;;;;50.08;42.85;;;28.70;88.20;;;;;;1821304;77;20204;-83
2022/04/13 01:23:32;;;;;;;51.75;42.93;;;28.70;88.20;;;;;;1817425;77;21156;-83
2022/04/13 01:25:59;;;;;;;49.58;44.30;;;28.70;88.10;;;;;;1816816;77;21144;-85
2022/04/13 01:28:55;;;;;;;50.05;44.67;;;28.80;88.30;;;;;;1823150;77;21144;-84
2022/04/13 01:31:20;;;;;;;47.10;42.08;;;28.80;88.00;;;;;;1788651;78;21164;-83
2022/04/13 01:34:06;;;;;;;51.25;45.15;;;28.90;88.20;;;;;;1813034;78;21247;-84
2022/04/13 01:36:51;;;;;;;51.18;45.60;;;29.00;88.10;;;;;;1829121;77;21088;-83
2022/04/13 01:39:10;;;;;;;53.02;46.37;;;29.00;87.20;;;;;;1811053;77;21174;-83
2022/04/13 01:41:50;;;;;;;53.63;46.77;;;29.10;87.00;;;;;;1797364;78;21103;-83
2022/04/13 01:44:20;;;;;;;;;;;29.10;87.30;;;;;;1813431;78;21189;-84
2022/04/13 01:46:56;;;;;;;51.42;45.60;;;29.10;87.30;;;;;;1814555;78;20399;-84
2022/04/13 01:49:31;;;;;;;53.23;44.18;;;29.20;87.00;;;;;;1816641;77;21146;-83
2022/04/13 01:52:11;;;;;;;51.10;44.77;;;29.30;87.00;;;;;;1801763;80;21104;-85
2022/04/13 01:54:45;;;;;;;49.67;44.27;;;29.50;86.50;;;;;;1815545;78;21214;-85
2022/04/13 01:57:19;;;;;;;50.25;44.77;;;29.50;86.10;;;;;;1808266;79;21206;-84
2022/04/13 01:59:53;;;;;;;52.60;46.95;;;29.60;85.70;;;;;;1814590;78;21101;-85
2022/04/13 02:02:24;;;;;;;53.60;46.23;;;29.70;84.80;;;;;;1826171;78;21104;-84
2022/04/13 02:04:55;;;;;;;52.67;46.42;;;29.80;84.50;;;;;;1810979;78;21114;-85
2022/04/13 02:07:29;;;;;;;52.15;46.55;;;29.90;84.50;;;;;;1829260;78;21092;-84
2022/04/13 02:10:00;;;;;;;50.65;44.90;;;29.90;83.90;;;;;;1829396;78;21100;-85
2022/04/13 02:12:36;;;;;;;51.95;45.38;;;30.00;83.50;;;;;;1809900;78;21195;-86
2022/04/13 02:15:06;;;;;;;51.20;45.80;;;30.10;83.10;;;;;;1807918;78;21195;-84
2022/04/13 02:17:38;;;;;;;50.03;44.73;;;30.20;82.30;;;;;;1816488;78;21155;-84
2022/04/13 02:20:10;;;;;;;50.85;43.95;;;30.20;82.30;;;;;;1829630;78;21165;-84
2022/04/13 02:22:43;;;;;;;50.48;44.95;;;30.30;82.10;;;;;;1830432;78;21638;-84
2022/04/13 02:25:15;;;;;;;50.33;42.78;;;30.30;81.50;;;;;;1820554;78;21138;-85
2022/04/13 02:27:47;;;;;;;49.40;44.10;;;30.40;81.10;;;;;;1808339;79;21097;-85
2022/04/13 02:30:18;;;;;;;50.33;44.70;;;30.50;80.80;;;;;;1812752;78;21097;-84
2022/04/13 02:32:49;;;;;;;47.50;42.33;;;30.60;80.50;;;;;;1828404;77;21148;-84
2022/04/13 02:35:20;;;;;;;47.15;42.27;;;30.70;80.10;;;;;;1840355;78;21136;-85
2022/04/13 02:37:51;;;;;;;46.92;42.17;;;30.80;79.40;;;;;;1838020;78;21199;-86
2022/04/13 02:40:22;;;;;;;45.80;40.95;;;30.90;78.80;;;;;;1822733;78;21097;-84
2022/04/13 02:42:53;;;;;;;44.50;39.67;;;31.00;78.20;;;;;;1818433;77;21171;-85
2022/04/13 02:45:25;;;;;;;46.98;41.65;;;31.10;77.50;;;;;;1811156;78;21329;-84
2022/04/13 02:47:56;;;;;;;45.88;40.88;;;31.20;77.30;;;;;;1799614;79;21096;-85
2022/04/13 02:50:27;;;;;;;45.23;40.35;;;31.20;77.30;;;;;;1824198;78;21172;-84
2022/04/13 02:52:58;;;;;;;46.58;40.23;;;31.30;77.00;;;;;;1841094;77;21116;-86
2022/04/13 02:55:33;;;;;;;44.85;40.10;;;31.30;76.70;;;;;;1831223;78;21082;-84
2022/04/13 02:58:11;;;;;;;45.23;40.43;;;31.40;75.90;;;;;;1834589;77;21097;-86
2022/04/13 03:01:06;;;;;;;47.03;40.98;;;31.50;75.90;;;;;;1832188;78;21136;-84
2022/04/13 03:03:39;;;;;;;47.53;40.85;;;31.70;76.00;;;;;;1829128;77;21151;-84
2022/04/13 03:06:10;;;;;;;48.87;41.77;;;31.80;75.40;;;;;;1821376;78;21143;-86
2022/04/13 03:08:41;;;;;;;45.92;39.45;;;31.90;74.50;;;;;;1812524;78;21140;-83
2022/04/13 03:11:15;;;;;;;42.90;38.45;;;32.10;73.80;;;;;;1819884;78;21147;-82
2022/04/13 03:13:47;;;;;;;45.30;40.52;;;32.10;73.30;;;;;;1819950;78;21098;-84
2022/04/13 03:16:21;;;;;;;44.25;39.63;;;32.10;72.70;;;;;;1824220;78;21630;-83
2022/04/13 03:19:01;;;;;;;43.68;39.08;;;32.20;73.20;;;;;;1804029;78;21107;-87
2022/04/13 03:21:32;;;;;;;42.95;38.42;;;32.20;73.60;;;;;;1773075;79;21154;-84
2022/04/13 03:24:03;;;;;;;53.10;41.30;;;32.20;80.20;;;;;;1806575;79;21108;-85
2022/04/13 03:26:34;;;;;;;44.80;40.00;;;32.40;80.20;;;;;;1811014;78;21151;-84
2022/04/13 03:29:05;;;;;;;44.25;39.67;;;32.70;88.30;;;;;;1819690;78;21097;-82
2022/04/13 03:31:36;;;;;;;43.95;38.35;;;32.70;71.40;;;;;;1825514;78;21101;-83
2022/04/13 03:34:10;;;;;;;43.98;39.27;;;32.70;74.50;;;;;;1826516;78;21144;-83
2022/04/13 03:36:41;;;;;;;42.90;38.40;;;33.00;85.30;;;;;;1828159;77;21176;-83
2022/04/13 03:39:12;;;;;;;44.27;37.67;;;32.80;77.60;;;;;;1818236;78;21128;-83
2022/04/13 03:41:43;;;;;;;44.35;39.80;;;33.00;76.50;;;;;;1816295;78;21147;-82
2022/04/13 03:44:14;;;;;;;44.50;39.98;;;33.20;96.80;;;;;;1829742;77;21089;-84
2022/04/13 03:46:45;;;;;;;45.33;39.33;;;33.20;93.60;;;;;;1831892;78;21187;-84
2022/04/13 03:49:18;;;;;;;44.03;39.25;;;33.40;93.10;;;;;;1819120;77;21147;-84
2022/04/13 03:51:56;;;;;;;42.17;37.78;;;33.20;91.80;;;;;;1823695;78;21229;-84
2022/04/13 03:54:46;;;;;;;42.55;38.23;;;33.40;75.40;;;;;;1816112;78;21156;-84
2022/04/13 03:57:17;;;;;;;41.88;37.45;;;33.50;76.70;;;;;;1796919;80;21132;-83
2022/04/13 03:59:49;;;;;;;41.05;36.65;;;;;;;;;;1795770;80;21081;-84
2022/04/13 04:02:20;;;;;;;41.90;37.55;;;;;;;;;;1815779;77;21209;-83
2022/04/13 04:04:52;;;;;;;41.80;37.53;;;33.80;99.40;;;;;;1813828;78;21499;-84
2022/04/13 04:07:27;;;;;;;41.60;37.20;;;33.90;99.30;;;;;;1830314;78;21069;-84
2022/04/13 04:09:55;;;;;;;45.08;37.28;;;;;;;;;;1818147;77;21199;-84
2022/04/13 04:12:29;;;;;;;43.78;37.42;;;;;;;;;;1834166;77;21100;-84
2022/04/13 04:15:05;;;;;;;40.98;36.65;;;;;;;;;;1828920;77;21069;-83
2022/04/13 04:17:40;;;;;;;42.53;38.00;;;;;;;;;;1809392;78;21078;-84
2022/04/13 04:20:14;;;;;;;41.18;36.63;;;;;;;;;;1825419;78;21234;-83
2022/04/13 04:22:46;;;;;;;42.98;38.00;;;;;;;;;;1812569;78;21223;-84
2022/04/13 04:25:17;;;;;;;40.92;36.58;;;;;;;;;;1823735;78;21066;-85
2022/04/13 04:27:48;;;;;;;40.38;36.17;;;;;;;;;;1750932;82;21615;-85
2022/04/13 04:30:19;;;;;;;41.80;36.95;;;;;;;;;;1793186;80;21094;-83
2022/04/13 04:32:53;;;;;;;38.78;34.78;;;;;;;;;;1792200;80;21120;-84
2022/04/13 04:35:26;;;;;;;42.50;38.05;;;;;;;;;;1791335;79;21108;-84
2022/04/13 04:37:57;;;;;;;41.15;37.00;;;;;;;;;;1789328;80;21183;-84
2022/04/13 04:40:30;;;;;;;40.05;35.78;;;;;;;;;;1794197;79;21097;-82
2022/04/13 04:43:01;;;;;;;38.17;34.10;;;;;;;;;;1785627;80;21109;-85
2022/04/13 04:45:33;;;;;;;39.03;35.00;;;;;;;;;;1794601;79;21090;-85
2022/04/13 04:48:04;;;;;;;40.75;36.15;;;;;;;;;;1802899;79;21132;-86
2022/04/13 04:50:39;;;;;;;35.10;31.60;;;;;;;;;;1767667;81;21183;-84
2022/04/13 04:53:12;;;;;;;37.23;33.20;;;;;;;;;;1795208;80;21659;-84
2022/04/13 04:55:45;;;;;;;34.70;31.23;;;;;;;;;;1791766;80;21234;-84
2022/04/13 04:58:15;;;;;;;36.88;32.93;;;;;;;;;;1751559;82;21164;-83
2022/04/13 05:00:51;;;;;;;37.67;33.18;;;;;;;;;;1791313;80;21184;-84
2022/04/13 05:03:26;;;;;;;34.35;30.77;;;;;;;;;;1780191;80;21109;-84
2022/04/13 05:06:02;;;;;;;36.85;32.85;;;;;;;;;;1786130;79;21135;-84
2022/04/13 05:08:34;;;;;;;34.20;30.75;;;;;;;;;;1784484;80;21184;-84
2022/04/13 05:11:06;;;;;;;35.75;32.05;;;;;;;;;;1778919;80;21189;-85
2022/04/13 05:13:39;;;;;;;35.55;31.77;;;;;;;;;;1792511;80;21132;-85
2022/04/13 05:16:14;;;;;;;35.73;32.13;;;;;;;;;;1752865;82;21132;-84
2022/04/13 05:18:47;;;;;;;33.30;29.77;;;;;;;;;;1793414;79;21081;-85
2022/04/13 05:21:23;;;;;;;34.25;30.68;;;;;;;;;;1793478;80;21081;-85
2022/04/13 05:23:58;;;;;;;32.90;28.87;;;;;;;;;;1765747;81;21176;-83
2022/04/13 05:26:32;;;;;;;35.00;31.37;;;;;;;;;;1775973;80;21160;-85
2022/04/13 05:29:06;;;;;;;32.73;27.85;;;;;;;;;;1748601;81;21113;-84
2022/04/13 05:31:40;;;;;;;36.63;32.38;;;;;;;;;;1790294;78;21159;-84
2022/04/13 05:34:13;;;;;;;37.53;33.02;;;35.70;99.20;;;;;;1784208;80;21081;-85
2022/04/13 05:36:43;;;;;;;35.98;32.15;;;35.90;88.40;;;;;;1786458;78;21162;-86
2022/04/13 05:39:16;;;;;;;36.73;32.95;;;;;;;;;;1793722;79;21190;-84
2022/04/13 05:41:49;;;;;;;37.25;31.85;;;;;;;;;;1785072;80;21220;-83
2022/04/13 05:44:21;;;;;;;35.90;32.17;;;;;;;;;;1767888;81;21236;-85
2022/04/13 05:46:54;;;;;;;38.65;33.02;;;;;;;;;;1769305;80;21501;-84
2022/04/13 05:49:27;;;;;;;36.73;32.33;;;;;;;;;;1787923;80;21159;-84
2022/04/13 05:51:59;;;;;;;34.58;31.10;;;;;;;;;;1786799;79;21158;-82
2022/04/13 05:54:31;;;;;;;33.88;30.72;;;;;;;;;;1796100;80;21242;-84
2022/04/13 05:57:05;;;;;;;34.45;29.98;;;;;;;;;;1757263;81;21184;-83
2022/04/13 05:59:37;;;;;;;34.75;30.97;;;;;;;;;;1797129;79;21183;-84
2022/04/13 06:02:12;;;;;;;35.48;31.82;;;;;;;;;;1797191;80;21167;-82
2022/04/13 06:04:46;;;;;;;34.70;31.12;;;;;;;;;;1795548;79;21203;-84
2022/04/13 06:07:20;;;;;;;34.60;31.05;;;;;;;;;;1796298;80;21226;-85
2022/04/13 06:10:01;;;;;;;34.23;30.62;;;;;;;;;;1796682;80;21119;-83
2022/04/13 06:12:30;;;;;;;34.43;31.00;;;;;;;;;;1797157;79;21112;-84
2022/04/13 06:15:05;;;;;;;30.97;27.45;;;;;;;;;;1797019;79;21159;-84
2022/04/13 06:17:38;;;;;;;31.62;28.42;;;;;;;;;;1788599;80;21070;-84
2022/04/13 06:20:14;;;;;;;33.20;29.70;;;;;;;;;;1793266;80;21682;-83
2022/04/13 06:22:46;;;;;;;31.95;28.77;;;;;;;;;;1794437;80;21666;-84
2022/04/13 06:25:20;;;;;;;33.25;29.92;;;;;;;;;;1797290;80;21116;-82
2022/04/13 06:27:54;;;;;;;31.57;28.47;;;;;;;;;;1795782;80;21117;-85
2022/04/13 06:30:31;;;;;;;32.35;29.00;;;;;;;;;;1787138;79;21167;-83
2022/04/13 06:33:04;;;;;;;30.82;27.55;;;;;;;;;;1792030;79;21159;-82
2022/04/13 06:35:37;;;;;;;35.10;31.42;;;;;;;;;;1790362;79;21098;-84
2022/04/13 06:38:08;;;;;;;36.33;32.58;;;36.20;90.60;;;;;;1786551;79;21709;-83
2022/04/13 06:40:40;;;;;;;34.95;31.48;;;36.20;90.70;;;;;;1795879;78;21171;-85
2022/04/13 06:43:11;;;;;;;33.90;30.57;;;36.30;90.60;;;;;;1834673;77;21179;-85
2022/04/13 06:45:43;;;;;;;35.23;31.45;;;36.20;90.60;;;;;;1814026;77;21199;-85
2022/04/13 06:48:14;;;;;;;33.10;29.67;;;36.20;89.60;;;;;;1820008;77;21136;-84
2022/04/13 06:50:45;;;;;;;32.30;29.20;;;36.20;89.90;;;;;;1829457;77;21154;-85
2022/04/13 06:53:17;;;;;;;31.80;28.47;;;36.30;89.90;;;;;;1822389;78;21108;-85
2022/04/13 06:55:49;;;;;;;32.05;28.75;;;36.10;89.50;;;;;;1827713;78;21077;-85
2022/04/13 06:58:20;;;;;;;32.28;29.05;;;36.10;88.90;;;;;;1832713;78;21544;-85
2022/04/13 07:00:51;;;;;;;34.13;30.17;;;36.20;88.80;;;;;;1823940;77;21093;-85
2022/04/13 07:03:22;;;;;;;34.13;30.57;;;36.20;89.30;;;;;;1825411;78;21155;-85
2022/04/13 07:05:53;;;;;;;37.85;33.95;;;36.20;91.10;;;;;;1824719;77;21132;-83
2022/04/13 07:08:29;;;;;;;38.45;34.63;;;36.00;92.00;;;;;;1823158;77;21160;-83
2022/04/13 07:11:02;;;;;;;38.40;34.30;;;36.10;92.50;;;;;;1822556;77;21151;-83
2022/04/13 07:13:35;;;;;;;38.45;34.73;;;35.90;93.10;;;;;;1831221;78;21128;-84
2022/04/13 07:16:07;;;;;;;38.40;34.53;;;35.70;93.20;;;;;;1786567;79;21160;-82
2022/04/13 07:18:45;;;;;;;36.28;32.53;;;35.60;93.20;;;;;;1762134;80;21545;-85
2022/04/13 07:21:17;;;;;;;39.70;34.38;;;35.70;93.50;;;;;;1773203;80;21217;-84
2022/04/13 07:23:49;;;;;;;37.95;34.05;;;35.70;93.40;;;;;;1776193;79;21155;-82
2022/04/13 07:26:24;;;;;;;38.25;34.50;;;35.50;93.50;;;;;;1795877;79;21144;-84
2022/04/13 07:28:56;;;;;;;37.88;34.00;;;35.60;93.30;;;;;;1755066;80;21131;-83
2022/04/13 07:31:27;;;;;;;39.53;35.35;;;35.50;93.40;;;;;;1821937;78;21286;-85
2022/04/13 07:33:58;;;;;;;36.60;32.85;;;35.50;93.90;;;;;;1807307;77;21628;-85
2022/04/13 07:36:29;;;;;;;36.75;32.95;;;35.60;93.60;;;;;;1853591;76;21085;-84
2022/04/13 07:39:01;;;;;;;37.13;33.23;;;35.60;93.80;;;;;;1816182;77;21072;-83
2022/04/13 07:41:32;;;;;;;35.55;31.65;;;35.70;93.60;;;;;;1819823;77;21113;-84
2022/04/13 07:44:07;;;;;;;33.75;30.15;;;35.60;93.10;;;;;;1814948;77;21217;-87
2022/04/13 07:46:38;;;;;;;33.70;30.27;;;35.60;92.80;;;;;;1812292;78;21238;-85
2022/04/13 07:49:17;;;;;;;34.05;30.45;;;35.70;92.30;;;;;;1821019;77;21101;-85
2022/04/13 07:51:42;;;;;;;33.70;30.32;;;35.70;92.20;;;;;;1816959;79;21144;-84
2022/04/13 07:54:12;;;;;;;31.15;28.15;;;35.60;92.20;;;;;;1836916;76;21902;-85
2022/04/13 07:56:45;;;;;;;34.18;30.65;;;35.70;91.70;;;;;;1837034;77;21215;-85
2022/04/13 07:59:15;;;;;;;32.33;29.15;;;35.60;91.90;;;;;;1851877;76;21310;-85
2022/04/13 08:03:39;;;;;;;;;;;;;;;;;;;;;
2022/04/13 08:04:46;;;;;;;32.80;29.27;;;35.50;91.60;;;;;;1705384;81;21206;-85
2022/04/13 08:07:45;;;;;;;30.25;27.10;;;35.70;91.90;;;;;;1732842;81;21194;-84
2022/04/13 08:10:33;;;;;;;30.32;27.25;;;35.80;91.40;;;;;;1738987;81;21417;-85
2022/04/13 08:13:46;;;;;;;29.37;26.35;;;35.60;91.00;;;;;;1794225;77;21194;-84
2022/04/13 08:16:38;;;;;;;29.18;26.07;;;35.70;90.80;;;;;;1631682;86;21272;-85
2022/04/13 08:19:12;;;;;;;29.52;26.62;;;35.70;90.70;;;;;;1620697;86;21235;-85
2022/04/13 08:22:21;;;;;;;29.20;26.25;;;35.80;90.60;;;;;;1706612;83;21147;-87
2022/04/13 08:31:31;;;;;;;29.45;26.40;;;35.70;88.80;;;;;;1928769;73;22084;-84
2022/04/13 08:34:03;;;;;;;29.40;26.35;;;35.80;89.90;;;;;;1915618;75;21171;-82
2022/04/13 08:36:54;;;;;;;;;;;;;;;;;;;;;
2022/04/13 08:39:44;;;;;;;28.42;25.60;;;35.70;88.80;;;;;;1773674;80;21257;-85
2022/04/13 08:42:20;;;;;;;35.03;27.75;;;35.80;89.70;;;;;;1702343;83;21685;-82
2022/04/13 08:44:55;;;;;;;29.85;26.82;;;35.70;90.60;;;;;;1760089;80;21179;-85
2022/04/13 08:47:26;;;;;;;30.40;27.20;;;35.80;90.50;;;;;;1757262;80;21130;-84
2022/04/13 08:49:58;;;;;;;31.12;28.07;;;35.60;90.20;;;;;;1776403;79;22417;-83
2022/04/13 08:52:33;;;;;;;31.37;28.27;;;35.60;90.50;;;;;;1774671;79;21171;-84
2022/04/13 08:55:06;;;;;;;33.08;28.75;;;35.60;91.30;;;;;;1761691;80;21117;-84
2022/04/13 08:57:39;;;;;;;31.25;28.10;;;35.50;91.40;;;;;;1756470;80;21576;-85
2022/04/13 09:00:14;;;;;;;31.37;28.00;;;35.40;91.70;;;;;;1743287;81;22021;-84
2022/04/13 09:02:47;;;;;;;32.10;28.80;;;35.30;91.70;;;;;;1777668;80;21147;-84
2022/04/13 09:05:21;;;;;;;32.50;29.30;;;35.20;91.90;;;;;;1776748;80;21100;-82
2022/04/13 09:07:56;;;;;;;31.00;27.80;;;35.20;92.20;;;;;;1776449;80;21162;-83
2022/04/13 09:10:28;;;;;;;32.58;28.47;;;35.10;92.50;;;;;;1837682;75;21683;-84
2022/04/13 09:13:00;;;;;;;32.03;28.80;;;35.20;92.70;;;;;;1886490;75;21086;-84
2022/04/13 09:15:34;;;;;;;32.30;28.98;;;35.00;92.90;;;;;;1887883;75;21076;-84
2022/04/13 09:18:08;;;;;;;33.35;29.80;;;34.90;93.20;;;;;;1894903;75;21123;-84
2022/04/13 09:20:41;;;;;;;31.17;28.07;;;35.10;93.40;;;;;;1895013;75;21068;-84
2022/04/13 09:23:14;;;;;;;32.93;29.35;;;34.80;93.20;;;;;;1902822;75;21088;-84
2022/04/13 09:25:46;;;;;;;32.03;28.52;;;34.80;93.30;;;;;;1903328;75;21140;-83
2022/04/13 09:28:17;;;;;;;31.33;28.12;;;34.80;93.50;;;;;;1908611;74;21158;-84
2022/04/13 09:30:48;;;;;;;32.33;29.25;;;34.80;93.50;;;;;;1905762;74;21217;-83
2022/04/13 09:33:19;;;;;;;33.58;29.98;;;34.80;94.30;;;;;;1885552;75;21096;-83
2022/04/13 09:35:50;;;;;;;35.00;31.12;;;34.80;94.50;;;;;;1888979;75;21239;-83
2022/04/13 09:38:21;;;;;;;36.88;31.50;;;34.70;95.60;;;;;;1913152;75;21193;-84
2022/04/13 09:40:53;;;;;;;34.48;31.02;;;34.60;96.50;;;;;;1903970;75;21092;-84
2022/04/13 09:43:24;;;;;;;32.95;29.67;;;34.70;96.50;;;;;;1890181;75;21146;-84
2022/04/13 09:45:57;;;;;;;35.78;31.82;;;;;;;;;;1907542;74;21169;-85
2022/04/13 09:48:29;;;;;;;33.92;30.40;;;34.20;96.40;;;;;;1924020;74;21057;-83
2022/04/13 09:51:03;;;;;;;33.65;30.02;;;;;;;;;;1916811;74;21073;-84
2022/04/13 09:53:37;;;;;;;33.42;30.10;;;34.20;95.70;;;;;;1901897;74;21166;-84
2022/04/13 09:56:10;;;;;;;36.33;29.15;;;34.00;95.80;;;;;;1845914;78;21052;-84
2022/04/13 09:58:42;;;;;;;31.00;27.82;;;34.00;95.60;;;;;;1906769;75;21100;-84
2022/04/13 10:01:12;;;;;;;32.90;29.50;;;34.00;95.60;;;;;;1882190;75;21186;-83
2022/04/13 10:03:47;;;;;;;32.05;28.80;;;33.90;95.40;;;;;;1909563;75;21146;-83
2022/04/13 10:06:24;;;;;;;32.98;29.48;;;33.90;95.20;;;;;;1882101;75;21134;-83
2022/04/13 10:08:57;;;;;;;31.42;28.25;;;33.90;95.30;;;;;;1884476;75;21136;-83
2022/04/13 10:11:28;;;;;;;31.37;28.15;;;33.90;95.00;;;;;;1892796;75;21080;-83
2022/04/13 10:14:02;;;;;;;31.27;27.45;;;34.00;94.90;;;;;;1900674;75;21560;-83
2022/04/13 10:16:34;;;;;;;31.48;28.23;;;34.00;94.60;;;;;;1885923;75;21622;-83
2022/04/13 10:19:06;;;;;;;31.90;28.57;;;34.00;94.90;;;;;;1901323;75;21171;-84
2022/04/13 10:21:41;;;;;;;32.67;28.83;;;33.90;94.90;;;;;;1906921;75;21520;-83
2022/04/13 10:24:14;;;;;;;31.20;28.07;;;34.00;94.90;;;;;;1900861;75;21156;-84
2022/04/13 10:29:20;;;;;;;31.77;28.67;;;34.00;94.90;;;;;;1900456;75;21092;-83
2022/04/13 10:31:54;;;;;;;34.23;29.63;;;34.00;94.80;;;;;;1886497;75;21163;-84
2022/04/13 10:34:31;;;;;;;32.95;29.52;;;34.00;94.90;;;;;;1895559;75;21227;-82
2022/04/13 10:37:05;;;;;;;30.92;27.67;;;34.00;94.50;;;;;;1857611;77;21111;-82
2022/04/13 10:39:37;;;;;;;31.57;28.20;;;34.00;94.80;;;;;;1892395;75;21076;-84
2022/04/13 10:42:10;;;;;;;31.40;28.10;;;34.10;94.70;;;;;;1910445;75;21053;-84
2022/04/13 10:44:48;;;;;;;30.25;26.93;;;34.10;94.60;;;;;;1890185;75;21080;-82
2022/04/13 10:47:21;;;;;;;29.95;26.95;;;34.00;94.20;;;;;;1870789;75;21042;-84
2022/04/13 10:49:54;;;;;;;29.05;26.05;;;34.00;94.20;;;;;;1891272;75;21190;-83
2022/04/13 10:52:28;;;;;;;30.25;27.15;;;33.90;94.40;;;;;;1900427;75;21152;-83
2022/04/13 10:55:02;;;;;;;33.40;29.85;;;33.90;94.40;;;;;;1900911;75;21077;-83
2022/04/13 10:57:34;;;;;;;29.10;26.07;;;;;;;;;;1901170;75;21512;-83
2022/04/13 11:00:07;;;;;;;29.63;26.23;;;33.80;93.60;;;;;;1902404;75;21155;-83
2022/04/13 11:02:39;;;;;;;29.67;26.07;;;;;;;;;;1856513;75;21143;-84
2022/04/13 11:05:14;;;;;;;28.97;25.97;;;33.70;93.10;;;;;;1879986;75;21089;-85
2022/04/13 11:07:47;;;;;;;30.43;26.65;;;33.70;93.60;;;;;;1876656;75;21206;-83
2022/04/13 11:10:21;;;;;;;30.92;27.62;;;;;;;;;;1911897;75;21072;-84
2022/04/13 11:12:52;;;;;;;30.40;27.40;;;33.70;93.70;;;;;;1871632;77;21132;-83
2022/04/13 11:15:25;;;;;;;30.77;26.35;;;33.70;93.80;;;;;;1871192;75;21090;-84
2022/04/13 11:17:58;;;;;;;;;;;;;;;;;;1881114;75;21140;-84
2022/04/13 11:20:29;;;;;;;23.87;21.35;;;;;;;;;;1902243;75;20469;-83
2022/04/13 11:23:00;;;;;;;36.83;21.05;;;;;;;;;;1872261;75;21057;-84
2022/04/13 11:25:34;;;;;;;25.32;21.52;;;33.40;94.30;;;;;;1879994;75;21164;-82
2022/04/13 11:28:05;;;;;;;23.62;20.08;;;;;;;;;;1870674;75;21188;-83
2022/04/13 11:30:40;;;;;;;25.55;20.88;;;;;;;;;;1876567;75;21205;-82
2022/04/13 11:33:12;;;;;;;24.40;20.75;;;;;;;;;;1867840;77;21159;-82
2022/04/13 11:35:46;;;;;;;28.07;20.97;;;;;;;;;;1884775;75;21177;-83
2022/04/13 11:38:18;;;;;;;25.27;21.97;;;;;;;;;;1896567;75;21072;-82
2022/04/13 11:40:53;;;;;;;23.70;21.30;;;;;;;;;;1887129;75;21536;-82
2022/04/13 11:43:29;;;;;;;25.77;21.12;;;;;;;;;;1868997;76;21081;-83
2022/04/13 11:46:03;;;;;;;25.27;21.40;;;;;;;;;;1879273;75;21120;-81
2022/04/13 11:48:38;;;;;;;28.35;21.10;;;;;;;;;;1871887;75;21218;-81
2022/04/13 11:51:13;;;;;;;24.07;21.57;;;;;;;;;;1869444;75;21106;-82
2022/04/13 11:53:48;;;;;;;24.72;22.13;;;;;;;;;;1886106;75;21205;-82
2022/04/13 11:56:23;;;;;;;25.85;22.85;;;;;;;;;;1897291;75;21136;-82
2022/04/13 11:58:58;;;;;;;24.12;21.62;;;;;;;;;;1900084;75;21166;-82
2022/04/13 12:01:33;;;;;;;28.20;21.85;;;;;;;;;;1877996;75;21085;-81
2022/04/13 12:04:07;;;;;;;24.65;22.25;;;;;;;;;;1867353;75;21161;-82
2022/04/13 12:06:42;;;;;;;29.07;23.50;;;;;;;;;;1865127;77;21137;-82
2022/04/13 12:09:15;;;;;;;26.40;23.42;;;;;;;;;;1865246;77;21100;-82
2022/04/13 12:11:50;;;;;;;27.52;23.92;;;;;;;;;;1880546;75;21183;-81
2022/04/13 12:14:25;;;;;;;29.48;23.60;;;;;;;;;;1895111;74;21069;-82
2022/04/13 12:16:59;;;;;;;30.90;26.20;;;;;;;;;;1880848;75;21156;-83
2022/04/13 12:19:34;;;;;;;29.95;26.20;;;;;;;;;;1865787;77;21088;-83
2022/04/13 12:22:08;;;;;;;30.45;27.22;;;32.30;99.90;;;;;;1868987;77;21237;-81
2022/04/13 12:24:38;;;;;;;31.02;26.68;;;32.50;91.70;;;;;;1866838;77;21073;-82
2022/04/13 12:27:11;;;;;;;29.85;25.88;;;32.40;84.20;;;;;;1871668;74;21089;-84
2022/04/13 12:29:42;;;;;;;32.83;25.32;;;32.40;81.60;;;;;;1885745;75;21097;-82
2022/04/13 12:32:16;;;;;;;30.00;25.15;;;32.40;80.70;;;;;;1890601;75;21154;-82
2022/04/13 12:34:48;;;;;;;27.58;23.65;;;32.30;80.60;;;;;;1879665;75;21092;-83
2022/04/13 12:37:19;;;;;;;28.55;23.65;;;;;;;;;;1873241;75;21065;-83
2022/04/13 12:39:50;;;;;;;25.88;23.18;;;32.20;91.70;;;;;;1877581;75;21589;-83
2022/04/13 12:42:23;;;;;;;26.45;23.38;;;32.10;81.40;;;;;;1890559;75;21076;-82
2022/04/13 12:44:54;;;;;;;25.35;22.42;;;32.10;79.40;;;;;;1885790;75;21139;-82
2022/04/13 12:47:25;;;;;;;28.47;23.50;;;32.10;79.90;;;;;;1895316;75;21599;-81
2022/04/13 12:50:01;;;;;;;26.35;23.65;;;32.10;79.30;;;;;;1879107;75;21077;-82
2022/04/13 12:52:32;;;;;;;27.82;23.60;;;32.10;79.30;;;;;;1872587;75;21528;-83
2022/04/13 12:55:04;;;;;;;28.92;24.00;;;32.20;79.10;;;;;;1882246;75;21152;-82
2022/04/13 12:57:35;;;;;;;27.75;23.20;;;32.10;78.90;;;;;;1886364;75;21085;-83
2022/04/13 13:00:07;;;;;;;30.95;22.58;;;32.20;78.80;;;;;;1878515;75;21210;-83
2022/04/13 13:02:38;;;;;;;25.65;22.95;;;32.00;78.90;;;;;;1888745;74;21081;-83
2022/04/13 13:05:10;;;;;;;27.02;23.18;;;32.10;78.80;;;;;;1883454;75;21132;-83
2022/04/13 13:07:43;;;;;;;25.72;22.95;;;32.10;78.90;;;;;;1877223;75;21132;-83
2022/04/13 13:10:14;;;;;;;28.35;22.65;;;32.10;79.90;;;;;;1884416;75;21176;-82
2022/04/13 13:12:45;;;;;;;26.30;22.95;;;32.00;79.70;;;;;;1886422;75;21142;-82
2022/04/13 13:15:19;;;;;;;28.55;23.27;;;32.00;80.20;;;;;;1874160;75;21255;-83
2022/04/13 13:17:48;;;;;;;31.52;22.65;;;32.00;80.10;;;;;;1874243;75;21160;-82
2022/04/13 13:20:20;;;;;;;27.02;23.12;;;32.00;80.60;;;;;;1880174;75;21090;-83
2022/04/13 13:22:52;;;;;;;28.05;23.90;;;32.00;80.60;;;;;;1900360;75;21174;-81
2022/04/13 13:25:22;;;;;;;29.92;23.55;;;31.90;80.70;;;;;;1901393;75;21085;-82
2022/04/13 13:27:59;;;;;;;28.25;24.25;;;32.00;81.10;;;;;;1891299;75;21139;-82
2022/04/13 13:30:33;;;;;;;29.82;24.67;;;31.80;81.60;;;;;;1887928;75;21061;-82
2022/04/13 13:33:05;;;;;;;30.20;25.80;;;31.80;81.20;;;;;;1822433;76;21100;-82
2022/04/13 13:35:36;;;;;;;28.07;24.65;;;31.80;81.50;;;;;;1897285;74;21193;-81
2022/04/13 13:38:10;;;;;;;27.20;24.35;;;31.90;82.60;;;;;;1910360;74;21084;-82
2022/04/13 13:40:43;;;;;;;29.65;24.95;;;31.80;82.70;;;;;;1898422;74;21080;-84
2022/04/13 13:43:18;;;;;;;29.85;24.85;;;31.80;83.00;;;;;;1908129;74;21539;-84